KLMT

Crater Lake-Klamath Regional Airport

Klamath Falls, Oregon, USA
METAR KLMT 201953Z 26006KT 3SM HZ FU FEW036 27/06 A3007 RMK AO2 SLP142 T02670061
Observed Flight Rules
Aug-20 @ 19:53 UTC (36 minutes ago) Marginal Visual Flight Rules
Wind Visibility Clouds Conditions
260° at 6 knots 3 miles
  • Few at 3,600' AGL
  • Haze
  • Smoke
Temperatures Readings
Current 27°C / 81°F
Dewpoint 6°C / 43°F
Humidity 26%
Altimeter 30.07" Hg
Pressure 1014.2 hPa
Elevation 1246
METAR KLMT 201953Z 26006KT 3SM HZ FU FEW036 27/06 A3007 RMK AO2 SLP142 T02670061
Observed Flight Rules
Aug-20 @ 19:53 UTC
(36 minutes ago)
MVFR
Wind Visibility
260° at 6 knots 3 miles
Clouds
  • Few at 3,600' AGL
Conditions
  • Haze
  • Smoke
Temperature Dewpoint
27°C / 81°F 6°C / 43°F
Humidity Altimeter Pressure
26% 30.07" Hg 1014.2 hPa